sensor_id;sensor_type;location;lat;lon;timestamp;P1;durP1;ratioP1;P2;durP2;ratioP2
65377;SDS011;51982;51.042;13.806;2023-07-13T00:00:11;2.27;;;1.30;;
65377;SDS011;51982;51.042;13.806;2023-07-13T00:02:40;2.72;;;1.60;;
65377;SDS011;51982;51.042;13.806;2023-07-13T00:05:06;3.88;;;1.63;;
65377;SDS011;51982;51.042;13.806;2023-07-13T00:07:31;1.63;;;1.40;;
65377;SDS011;51982;51.042;13.806;2023-07-13T00:09:56;2.90;;;1.50;;
65377;SDS011;51982;51.042;13.806;2023-07-13T00:12:23;2.45;;;1.40;;
65377;SDS011;51982;51.042;13.806;2023-07-13T00:14:54;2.72;;;1.50;;
65377;SDS011;51982;51.042;13.806;2023-07-13T00:17:22;3.63;;;1.35;;
65377;SDS011;51982;51.042;13.806;2023-07-13T00:19:47;3.55;;;1.50;;
65377;SDS011;51982;51.042;13.806;2023-07-13T00:22:12;3.05;;;1.50;;
65377;SDS011;51982;51.042;13.806;2023-07-13T00:24:38;4.93;;;1.80;;
65377;SDS011;51982;51.042;13.806;2023-07-13T00:27:06;2.55;;;1.50;;
65377;SDS011;51982;51.042;13.806;2023-07-13T00:29:33;3.38;;;1.38;;
65377;SDS011;51982;51.042;13.806;2023-07-13T00:31:58;6.35;;;1.73;;
65377;SDS011;51982;51.042;13.806;2023-07-13T00:34:24;2.60;;;1.50;;
65377;SDS011;51982;51.042;13.806;2023-07-13T00:36:49;1.83;;;1.47;;
65377;SDS011;51982;51.042;13.806;2023-07-13T00:39:14;2.20;;;1.60;;
65377;SDS011;51982;51.042;13.806;2023-07-13T00:41:39;2.00;;;1.40;;
65377;SDS011;51982;51.042;13.806;2023-07-13T00:44:04;5.10;;;1.73;;
65377;SDS011;51982;51.042;13.806;2023-07-13T00:46:31;2.25;;;1.60;;
65377;SDS011;51982;51.042;13.806;2023-07-13T00:48:59;2.35;;;1.60;;
65377;SDS011;51982;51.042;13.806;2023-07-13T00:51:30;2.25;;;1.55;;
65377;SDS011;51982;51.042;13.806;2023-07-13T00:54:00;1.77;;;1.48;;
65377;SDS011;51982;51.042;13.806;2023-07-13T00:56:29;2.60;;;1.40;;
65377;SDS011;51982;51.042;13.806;2023-07-13T00:58:56;3.03;;;1.50;;
65377;SDS011;51982;51.042;13.806;2023-07-13T01:01:22;2.92;;;1.60;;
65377;SDS011;51982;51.042;13.806;2023-07-13T01:03:47;4.43;;;1.77;;
65377;SDS011;51982;51.042;13.806;2023-07-13T01:06:13;2.58;;;1.48;;
65377;SDS011;51982;51.042;13.806;2023-07-13T01:08:38;2.50;;;1.50;;
65377;SDS011;51982;51.042;13.806;2023-07-13T01:11:05;3.55;;;1.48;;
65377;SDS011;51982;51.042;13.806;2023-07-13T01:13:30;11.75;;;2.00;;
65377;SDS011;51982;51.042;13.806;2023-07-13T01:15:56;3.38;;;1.95;;
65377;SDS011;51982;51.042;13.806;2023-07-13T01:18:26;3.13;;;1.88;;
65377;SDS011;51982;51.042;13.806;2023-07-13T01:20:58;3.08;;;2.20;;
65377;SDS011;51982;51.042;13.806;2023-07-13T01:23:25;3.72;;;1.98;;
65377;SDS011;51982;51.042;13.806;2023-07-13T01:25:52;3.25;;;1.80;;
65377;SDS011;51982;51.042;13.806;2023-07-13T01:28:18;5.45;;;2.00;;
65377;SDS011;51982;51.042;13.806;2023-07-13T01:30:45;4.93;;;1.77;;
65377;SDS011;51982;51.042;13.806;2023-07-13T01:33:12;2.78;;;1.90;;
65377;SDS011;51982;51.042;13.806;2023-07-13T01:35:38;5.88;;;2.10;;
65377;SDS011;51982;51.042;13.806;2023-07-13T01:38:04;3.00;;;1.90;;
65377;SDS011;51982;51.042;13.806;2023-07-13T01:40:30;3.63;;;1.75;;
65377;SDS011;51982;51.042;13.806;2023-07-13T01:42:56;3.72;;;1.75;;
65377;SDS011;51982;51.042;13.806;2023-07-13T01:45:21;4.13;;;1.60;;
65377;SDS011;51982;51.042;13.806;2023-07-13T01:47:46;2.85;;;1.77;;
65377;SDS011;51982;51.042;13.806;2023-07-13T01:50:12;4.03;;;1.90;;
65377;SDS011;51982;51.042;13.806;2023-07-13T01:52:37;6.55;;;2.00;;
65377;SDS011;51982;51.042;13.806;2023-07-13T01:55:02;4.27;;;2.00;;
65377;SDS011;51982;51.042;13.806;2023-07-13T01:57:28;3.63;;;2.00;;
65377;SDS011;51982;51.042;13.806;2023-07-13T01:59:53;2.37;;;1.73;;
65377;SDS011;51982;51.042;13.806;2023-07-13T02:02:18;2.80;;;1.98;;
65377;SDS011;51982;51.042;13.806;2023-07-13T02:04:44;6.43;;;2.00;;
65377;SDS011;51982;51.042;13.806;2023-07-13T02:07:09;6.77;;;1.90;;
65377;SDS011;51982;51.042;13.806;2023-07-13T02:09:34;4.80;;;2.10;;
65377;SDS011;51982;51.042;13.806;2023-07-13T02:12:00;3.43;;;1.93;;
65377;SDS011;51982;51.042;13.806;2023-07-13T02:14:25;3.83;;;2.05;;
65377;SDS011;51982;51.042;13.806;2023-07-13T02:16:50;3.97;;;2.07;;
65377;SDS011;51982;51.042;13.806;2023-07-13T02:19:16;5.97;;;2.07;;
65377;SDS011;51982;51.042;13.806;2023-07-13T02:21:41;4.63;;;2.20;;
65377;SDS011;51982;51.042;13.806;2023-07-13T02:24:07;3.95;;;2.10;;
65377;SDS011;51982;51.042;13.806;2023-07-13T02:26:33;3.67;;;1.90;;
65377;SDS011;51982;51.042;13.806;2023-07-13T02:28:59;6.50;;;1.90;;
65377;SDS011;51982;51.042;13.806;2023-07-13T02:31:24;3.97;;;1.97;;
65377;SDS011;51982;51.042;13.806;2023-07-13T02:33:50;6.47;;;1.95;;
65377;SDS011;51982;51.042;13.806;2023-07-13T02:36:15;3.87;;;1.90;;
65377;SDS011;51982;51.042;13.806;2023-07-13T02:38:41;6.10;;;2.15;;
65377;SDS011;51982;51.042;13.806;2023-07-13T02:41:07;2.72;;;1.95;;
65377;SDS011;51982;51.042;13.806;2023-07-13T02:43:34;4.55;;;2.20;;
65377;SDS011;51982;51.042;13.806;2023-07-13T02:46:00;4.65;;;2.10;;
65377;SDS011;51982;51.042;13.806;2023-07-13T02:48:31;2.38;;;2.00;;
65377;SDS011;51982;51.042;13.806;2023-07-13T02:50:57;3.85;;;2.22;;
65377;SDS011;51982;51.042;13.806;2023-07-13T02:53:22;4.97;;;2.40;;
65377;SDS011;51982;51.042;13.806;2023-07-13T02:55:47;7.00;;;2.30;;
65377;SDS011;51982;51.042;13.806;2023-07-13T02:58:13;5.10;;;2.30;;
65377;SDS011;51982;51.042;13.806;2023-07-13T03:00:41;2.50;;;1.73;;
65377;SDS011;51982;51.042;13.806;2023-07-13T03:03:07;6.60;;;2.25;;
65377;SDS011;51982;51.042;13.806;2023-07-13T03:05:33;3.53;;;2.00;;
65377;SDS011;51982;51.042;13.806;2023-07-13T03:07:58;6.23;;;2.10;;
65377;SDS011;51982;51.042;13.806;2023-07-13T03:10:23;2.77;;;1.90;;
65377;SDS011;51982;51.042;13.806;2023-07-13T03:12:48;7.27;;;2.17;;
65377;SDS011;51982;51.042;13.806;2023-07-13T03:15:13;2.40;;;1.90;;
65377;SDS011;51982;51.042;13.806;2023-07-13T03:17:39;3.93;;;1.87;;
65377;SDS011;51982;51.042;13.806;2023-07-13T03:20:04;2.83;;;1.93;;
65377;SDS011;51982;51.042;13.806;2023-07-13T03:22:30;3.85;;;2.00;;
65377;SDS011;51982;51.042;13.806;2023-07-13T03:24:56;3.03;;;1.73;;
65377;SDS011;51982;51.042;13.806;2023-07-13T03:27:21;4.32;;;1.92;;
65377;SDS011;51982;51.042;13.806;2023-07-13T03:29:47;3.00;;;1.90;;
65377;SDS011;51982;51.042;13.806;2023-07-13T03:32:12;5.67;;;2.10;;
65377;SDS011;51982;51.042;13.806;2023-07-13T03:34:37;3.27;;;2.10;;
65377;SDS011;51982;51.042;13.806;2023-07-13T03:37:02;4.67;;;2.00;;
65377;SDS011;51982;51.042;13.806;2023-07-13T03:39:28;2.40;;;1.90;;
65377;SDS011;51982;51.042;13.806;2023-07-13T03:41:53;3.40;;;1.98;;
65377;SDS011;51982;51.042;13.806;2023-07-13T03:44:19;6.63;;;2.05;;
65377;SDS011;51982;51.042;13.806;2023-07-13T03:46:44;5.00;;;2.20;;
65377;SDS011;51982;51.042;13.806;2023-07-13T03:49:13;3.55;;;1.85;;
65377;SDS011;51982;51.042;13.806;2023-07-13T03:51:38;6.53;;;2.00;;
65377;SDS011;51982;51.042;13.806;2023-07-13T03:54:03;2.63;;;1.90;;
65377;SDS011;51982;51.042;13.806;2023-07-13T03:56:29;3.38;;;1.98;;
65377;SDS011;51982;51.042;13.806;2023-07-13T03:58:55;2.88;;;2.03;;
65377;SDS011;51982;51.042;13.806;2023-07-13T04:01:22;3.65;;;1.90;;
65377;SDS011;51982;51.042;13.806;2023-07-13T04:03:49;7.28;;;2.28;;
65377;SDS011;51982;51.042;13.806;2023-07-13T04:06:16;3.42;;;1.85;;
65377;SDS011;51982;51.042;13.806;2023-07-13T04:08:47;8.25;;;2.17;;
65377;SDS011;51982;51.042;13.806;2023-07-13T04:11:14;3.65;;;1.80;;
65377;SDS011;51982;51.042;13.806;2023-07-13T04:13:39;2.85;;;1.90;;
65377;SDS011;51982;51.042;13.806;2023-07-13T04:16:04;2.70;;;1.83;;
65377;SDS011;51982;51.042;13.806;2023-07-13T04:18:29;3.50;;;1.77;;
65377;SDS011;51982;51.042;13.806;2023-07-13T04:20:55;3.73;;;2.10;;
65377;SDS011;51982;51.042;13.806;2023-07-13T04:23:20;8.55;;;2.33;;
65377;SDS011;51982;51.042;13.806;2023-07-13T04:25:46;5.17;;;2.10;;
65377;SDS011;51982;51.042;13.806;2023-07-13T04:28:14;3.40;;;2.22;;
65377;SDS011;51982;51.042;13.806;2023-07-13T04:30:39;6.07;;;2.00;;
65377;SDS011;51982;51.042;13.806;2023-07-13T04:33:05;3.17;;;2.03;;
65377;SDS011;51982;51.042;13.806;2023-07-13T04:35:30;5.30;;;2.20;;
65377;SDS011;51982;51.042;13.806;2023-07-13T04:37:56;5.13;;;2.33;;
65377;SDS011;51982;51.042;13.806;2023-07-13T04:40:21;2.75;;;1.92;;
65377;SDS011;51982;51.042;13.806;2023-07-13T04:42:47;6.20;;;2.13;;
65377;SDS011;51982;51.042;13.806;2023-07-13T04:45:13;3.03;;;1.83;;
65377;SDS011;51982;51.042;13.806;2023-07-13T04:47:39;4.68;;;2.20;;
65377;SDS011;51982;51.042;13.806;2023-07-13T04:50:05;3.63;;;1.70;;
65377;SDS011;51982;51.042;13.806;2023-07-13T04:52:31;3.28;;;1.90;;
65377;SDS011;51982;51.042;13.806;2023-07-13T04:54:58;6.05;;;2.35;;
65377;SDS011;51982;51.042;13.806;2023-07-13T04:57:23;3.58;;;1.98;;
65377;SDS011;51982;51.042;13.806;2023-07-13T04:59:48;3.67;;;2.30;;
65377;SDS011;51982;51.042;13.806;2023-07-13T05:02:14;3.28;;;2.05;;
65377;SDS011;51982;51.042;13.806;2023-07-13T05:04:39;4.05;;;1.80;;
65377;SDS011;51982;51.042;13.806;2023-07-13T05:07:05;7.33;;;2.13;;
65377;SDS011;51982;51.042;13.806;2023-07-13T05:09:31;3.53;;;2.22;;
65377;SDS011;51982;51.042;13.806;2023-07-13T05:11:56;5.25;;;2.10;;
65377;SDS011;51982;51.042;13.806;2023-07-13T05:14:21;4.00;;;2.17;;
65377;SDS011;51982;51.042;13.806;2023-07-13T05:16:46;5.70;;;2.00;;
65377;SDS011;51982;51.042;13.806;2023-07-13T05:19:12;7.53;;;2.03;;
65377;SDS011;51982;51.042;13.806;2023-07-13T05:21:37;5.35;;;2.13;;
65377;SDS011;51982;51.042;13.806;2023-07-13T05:24:02;5.83;;;2.87;;
65377;SDS011;51982;51.042;13.806;2023-07-13T05:26:28;3.50;;;2.33;;
65377;SDS011;51982;51.042;13.806;2023-07-13T05:28:53;6.13;;;2.27;;
65377;SDS011;51982;51.042;13.806;2023-07-13T05:31:18;4.50;;;2.10;;
65377;SDS011;51982;51.042;13.806;2023-07-13T05:33:43;6.23;;;2.20;;
65377;SDS011;51982;51.042;13.806;2023-07-13T05:36:09;5.28;;;2.20;;
65377;SDS011;51982;51.042;13.806;2023-07-13T05:38:34;4.55;;;2.05;;
65377;SDS011;51982;51.042;13.806;2023-07-13T05:40:59;3.33;;;2.10;;
65377;SDS011;51982;51.042;13.806;2023-07-13T05:43:25;4.43;;;2.00;;
65377;SDS011;51982;51.042;13.806;2023-07-13T05:45:53;8.48;;;2.10;;
65377;SDS011;51982;51.042;13.806;2023-07-13T05:48:19;2.70;;;1.95;;
65377;SDS011;51982;51.042;13.806;2023-07-13T05:50:45;4.40;;;2.20;;
65377;SDS011;51982;51.042;13.806;2023-07-13T05:53:11;4.40;;;2.00;;
65377;SDS011;51982;51.042;13.806;2023-07-13T05:55:40;4.10;;;2.40;;
65377;SDS011;51982;51.042;13.806;2023-07-13T05:58:06;3.70;;;2.15;;
65377;SDS011;51982;51.042;13.806;2023-07-13T06:00:32;13.10;;;2.30;;
65377;SDS011;51982;51.042;13.806;2023-07-13T06:02:58;4.07;;;2.47;;
65377;SDS011;51982;51.042;13.806;2023-07-13T06:05:23;4.07;;;2.53;;
65377;SDS011;51982;51.042;13.806;2023-07-13T06:07:49;4.43;;;2.50;;
65377;SDS011;51982;51.042;13.806;2023-07-13T06:10:14;5.83;;;3.00;;
65377;SDS011;51982;51.042;13.806;2023-07-13T06:12:39;3.17;;;2.35;;
65377;SDS011;51982;51.042;13.806;2023-07-13T06:15:04;6.40;;;2.40;;
65377;SDS011;51982;51.042;13.806;2023-07-13T06:17:30;5.88;;;2.60;;
65377;SDS011;51982;51.042;13.806;2023-07-13T06:19:55;5.43;;;2.70;;
65377;SDS011;51982;51.042;13.806;2023-07-13T06:22:21;8.83;;;3.20;;
65377;SDS011;51982;51.042;13.806;2023-07-13T06:24:46;5.47;;;2.60;;
65377;SDS011;51982;51.042;13.806;2023-07-13T06:27:11;4.57;;;2.28;;
65377;SDS011;51982;51.042;13.806;2023-07-13T06:29:36;3.13;;;2.37;;
65377;SDS011;51982;51.042;13.806;2023-07-13T06:32:02;5.47;;;2.60;;
65377;SDS011;51982;51.042;13.806;2023-07-13T06:34:27;6.65;;;2.60;;
65377;SDS011;51982;51.042;13.806;2023-07-13T06:36:52;5.63;;;2.80;;
65377;SDS011;51982;51.042;13.806;2023-07-13T06:39:17;8.33;;;2.50;;
65377;SDS011;51982;51.042;13.806;2023-07-13T06:41:43;6.15;;;2.97;;
65377;SDS011;51982;51.042;13.806;2023-07-13T06:44:08;6.40;;;2.67;;
65377;SDS011;51982;51.042;13.806;2023-07-13T06:46:33;5.03;;;2.50;;
65377;SDS011;51982;51.042;13.806;2023-07-13T06:48:58;4.83;;;2.60;;
65377;SDS011;51982;51.042;13.806;2023-07-13T06:51:23;9.67;;;2.70;;
65377;SDS011;51982;51.042;13.806;2023-07-13T06:53:49;3.90;;;2.37;;
65377;SDS011;51982;51.042;13.806;2023-07-13T06:56:15;4.15;;;2.40;;
65377;SDS011;51982;51.042;13.806;2023-07-13T06:58:40;6.32;;;2.65;;
65377;SDS011;51982;51.042;13.806;2023-07-13T07:01:05;7.13;;;2.40;;
65377;SDS011;51982;51.042;13.806;2023-07-13T07:03:31;5.50;;;2.95;;
65377;SDS011;51982;51.042;13.806;2023-07-13T07:06:12;4.47;;;2.30;;
65377;SDS011;51982;51.042;13.806;2023-07-13T07:08:41;6.35;;;2.70;;
65377;SDS011;51982;51.042;13.806;2023-07-13T07:11:08;5.80;;;2.53;;
65377;SDS011;51982;51.042;13.806;2023-07-13T07:13:35;6.43;;;2.53;;
65377;SDS011;51982;51.042;13.806;2023-07-13T07:16:00;4.67;;;2.30;;
65377;SDS011;51982;51.042;13.806;2023-07-13T07:18:25;4.68;;;2.40;;
65377;SDS011;51982;51.042;13.806;2023-07-13T07:20:51;4.72;;;2.00;;
65377;SDS011;51982;51.042;13.806;2023-07-13T07:23:16;5.63;;;2.30;;
65377;SDS011;51982;51.042;13.806;2023-07-13T07:25:43;5.60;;;1.87;;
65377;SDS011;51982;51.042;13.806;2023-07-13T07:28:08;8.57;;;2.10;;
65377;SDS011;51982;51.042;13.806;2023-07-13T07:30:34;5.50;;;1.70;;
65377;SDS011;51982;51.042;13.806;2023-07-13T07:33:00;5.50;;;1.80;;
65377;SDS011;51982;51.042;13.806;2023-07-13T07:35:26;3.72;;;1.90;;
65377;SDS011;51982;51.042;13.806;2023-07-13T07:37:51;8.90;;;2.00;;
65377;SDS011;51982;51.042;13.806;2023-07-13T07:40:16;11.53;;;1.53;;
65377;SDS011;51982;51.042;13.806;2023-07-13T07:42:42;4.93;;;1.77;;
65377;SDS011;51982;51.042;13.806;2023-07-13T07:45:08;4.67;;;1.80;;
65377;SDS011;51982;51.042;13.806;2023-07-13T07:47:33;3.83;;;1.80;;
65377;SDS011;51982;51.042;13.806;2023-07-13T07:49:58;7.77;;;1.80;;
65377;SDS011;51982;51.042;13.806;2023-07-13T07:52:23;5.60;;;1.90;;
65377;SDS011;51982;51.042;13.806;2023-07-13T07:54:49;7.67;;;1.83;;
65377;SDS011;51982;51.042;13.806;2023-07-13T07:57:14;3.67;;;1.50;;
65377;SDS011;51982;51.042;13.806;2023-07-13T07:59:39;3.43;;;1.70;;
65377;SDS011;51982;51.042;13.806;2023-07-13T08:02:04;6.23;;;1.80;;
65377;SDS011;51982;51.042;13.806;2023-07-13T08:04:30;5.93;;;1.90;;
65377;SDS011;51982;51.042;13.806;2023-07-13T08:06:55;4.13;;;1.73;;
65377;SDS011;51982;51.042;13.806;2023-07-13T08:09:22;5.22;;;1.80;;
65377;SDS011;51982;51.042;13.806;2023-07-13T08:11:47;3.13;;;1.63;;
65377;SDS011;51982;51.042;13.806;2023-07-13T08:14:12;5.82;;;1.60;;
65377;SDS011;51982;51.042;13.806;2023-07-13T08:16:38;2.33;;;1.40;;
65377;SDS011;51982;51.042;13.806;2023-07-13T08:19:03;3.47;;;1.80;;
65377;SDS011;51982;51.042;13.806;2023-07-13T08:21:29;3.80;;;1.75;;
65377;SDS011;51982;51.042;13.806;2023-07-13T08:23:54;4.28;;;1.58;;
65377;SDS011;51982;51.042;13.806;2023-07-13T08:26:20;5.90;;;1.58;;
65377;SDS011;51982;51.042;13.806;2023-07-13T08:28:46;3.17;;;1.40;;
65377;SDS011;51982;51.042;13.806;2023-07-13T08:31:12;3.85;;;1.30;;
65377;SDS011;51982;51.042;13.806;2023-07-13T08:33:38;5.90;;;1.50;;
65377;SDS011;51982;51.042;13.806;2023-07-13T08:36:05;3.65;;;1.40;;
65377;SDS011;51982;51.042;13.806;2023-07-13T08:38:31;3.35;;;1.40;;
65377;SDS011;51982;51.042;13.806;2023-07-13T08:40:56;4.38;;;1.40;;
65377;SDS011;51982;51.042;13.806;2023-07-13T08:43:26;3.05;;;1.30;;
65377;SDS011;51982;51.042;13.806;2023-07-13T08:48:56;4.50;;;1.40;;
65377;SDS011;51982;51.042;13.806;2023-07-13T08:56:56;6.35;;;1.38;;
65377;SDS011;51982;51.042;13.806;2023-07-13T08:59:25;4.00;;;1.45;;
65377;SDS011;51982;51.042;13.806;2023-07-13T09:04:37;6.57;;;1.58;;
65377;SDS011;51982;51.042;13.806;2023-07-13T09:07:14;3.63;;;1.30;;
65377;SDS011;51982;51.042;13.806;2023-07-13T09:10:01;6.28;;;1.50;;
65377;SDS011;51982;51.042;13.806;2023-07-13T09:13:05;2.88;;;1.45;;
65377;SDS011;51982;51.042;13.806;2023-07-13T09:15:43;4.25;;;1.25;;
65377;SDS011;51982;51.042;13.806;2023-07-13T09:18:11;2.25;;;1.15;;
65377;SDS011;51982;51.042;13.806;2023-07-13T09:20:43;2.28;;;1.42;;
65377;SDS011;51982;51.042;13.806;2023-07-13T09:23:17;5.32;;;1.20;;
65377;SDS011;51982;51.042;13.806;2023-07-13T09:25:46;5.40;;;1.30;;
65377;SDS011;51982;51.042;13.806;2023-07-13T09:33:10;4.37;;;1.17;;
65377;SDS011;51982;51.042;13.806;2023-07-13T09:35:35;2.30;;;1.27;;
65377;SDS011;51982;51.042;13.806;2023-07-13T09:38:03;2.83;;;1.30;;
65377;SDS011;51982;51.042;13.806;2023-07-13T09:44:00;6.40;;;1.15;;
65377;SDS011;51982;51.042;13.806;2023-07-13T09:46:35;3.03;;;1.63;;
65377;SDS011;51982;51.042;13.806;2023-07-13T09:49:01;1.85;;;1.30;;
65377;SDS011;51982;51.042;13.806;2023-07-13T09:51:26;3.23;;;1.40;;
65377;SDS011;51982;51.042;13.806;2023-07-13T09:53:51;2.70;;;1.33;;
65377;SDS011;51982;51.042;13.806;2023-07-13T09:56:25;3.78;;;1.20;;
65377;SDS011;51982;51.042;13.806;2023-07-13T09:58:52;1.60;;;1.10;;
65377;SDS011;51982;51.042;13.806;2023-07-13T10:01:39;3.15;;;1.30;;
65377;SDS011;51982;51.042;13.806;2023-07-13T10:04:13;4.50;;;1.17;;
65377;SDS011;51982;51.042;13.806;2023-07-13T10:06:39;2.70;;;1.48;;
65377;SDS011;51982;51.042;13.806;2023-07-13T10:09:08;2.90;;;1.30;;
65377;SDS011;51982;51.042;13.806;2023-07-13T10:11:34;1.80;;;1.20;;
65377;SDS011;51982;51.042;13.806;2023-07-13T10:14:01;2.00;;;1.30;;
65377;SDS011;51982;51.042;13.806;2023-07-13T10:16:34;3.13;;;1.30;;
65377;SDS011;51982;51.042;13.806;2023-07-13T10:19:02;3.80;;;1.20;;
65377;SDS011;51982;51.042;13.806;2023-07-13T10:21:32;4.60;;;1.30;;
65377;SDS011;51982;51.042;13.806;2023-07-13T10:24:06;4.85;;;1.60;;
65377;SDS011;51982;51.042;13.806;2023-07-13T10:26:38;2.60;;;1.27;;
65377;SDS011;51982;51.042;13.806;2023-07-13T10:29:11;2.92;;;1.23;;
65377;SDS011;51982;51.042;13.806;2023-07-13T10:31:39;4.65;;;1.70;;
65377;SDS011;51982;51.042;13.806;2023-07-13T10:34:08;4.60;;;1.20;;
65377;SDS011;51982;51.042;13.806;2023-07-13T10:36:39;7.38;;;2.40;;
65377;SDS011;51982;51.042;13.806;2023-07-13T10:39:09;2.80;;;1.20;;
65377;SDS011;51982;51.042;13.806;2023-07-13T10:44:11;3.38;;;1.40;;
65377;SDS011;51982;51.042;13.806;2023-07-13T10:46:44;4.97;;;1.48;;
65377;SDS011;51982;51.042;13.806;2023-07-13T10:49:10;3.55;;;1.70;;
65377;SDS011;51982;51.042;13.806;2023-07-13T10:51:36;3.45;;;1.27;;
65377;SDS011;51982;51.042;13.806;2023-07-13T10:56:43;3.20;;;1.60;;
65377;SDS011;51982;51.042;13.806;2023-07-13T10:59:12;3.47;;;1.50;;
65377;SDS011;51982;51.042;13.806;2023-07-13T11:01:48;3.83;;;1.45;;
65377;SDS011;51982;51.042;13.806;2023-07-13T11:04:17;4.40;;;1.50;;
65377;SDS011;51982;51.042;13.806;2023-07-13T11:06:45;5.50;;;1.50;;
65377;SDS011;51982;51.042;13.806;2023-07-13T11:12:01;3.00;;;1.30;;
65377;SDS011;51982;51.042;13.806;2023-07-13T11:25:30;3.97;;;1.00;;
65377;SDS011;51982;51.042;13.806;2023-07-13T11:33:13;2.67;;;1.07;;
65377;SDS011;51982;51.042;13.806;2023-07-13T11:38:22;4.55;;;1.15;;
65377;SDS011;51982;51.042;13.806;2023-07-13T11:40:53;4.05;;;1.30;;
65377;SDS011;51982;51.042;13.806;2023-07-13T11:43:20;5.00;;;1.10;;
65377;SDS011;51982;51.042;13.806;2023-07-13T11:45:48;6.68;;;1.63;;
65377;SDS011;51982;51.042;13.806;2023-07-13T11:48:33;3.65;;;1.48;;
65377;SDS011;51982;51.042;13.806;2023-07-13T11:51:00;2.30;;;1.20;;
65377;SDS011;51982;51.042;13.806;2023-07-13T11:53:28;3.38;;;1.20;;
65377;SDS011;51982;51.042;13.806;2023-07-13T11:56:03;2.83;;;1.13;;
65377;SDS011;51982;51.042;13.806;2023-07-13T11:58:28;4.38;;;1.20;;
65377;SDS011;51982;51.042;13.806;2023-07-13T12:00:55;4.13;;;1.33;;
65377;SDS011;51982;51.042;13.806;2023-07-13T12:03:24;3.83;;;1.20;;
65377;SDS011;51982;51.042;13.806;2023-07-13T12:05:57;3.83;;;1.10;;
65377;SDS011;51982;51.042;13.806;2023-07-13T12:08:37;2.80;;;1.60;;
65377;SDS011;51982;51.042;13.806;2023-07-13T12:11:05;6.78;;;1.20;;
65377;SDS011;51982;51.042;13.806;2023-07-13T12:13:40;4.05;;;1.40;;
65377;SDS011;51982;51.042;13.806;2023-07-13T12:16:22;1.60;;;1.10;;
65377;SDS011;51982;51.042;13.806;2023-07-13T12:18:57;3.55;;;1.38;;
65377;SDS011;51982;51.042;13.806;2023-07-13T12:21:36;4.45;;;1.15;;
65377;SDS011;51982;51.042;13.806;2023-07-13T12:24:04;4.00;;;1.30;;
65377;SDS011;51982;51.042;13.806;2023-07-13T12:26:36;8.17;;;1.27;;
65377;SDS011;51982;51.042;13.806;2023-07-13T12:29:04;2.13;;;1.20;;
65377;SDS011;51982;51.042;13.806;2023-07-13T12:31:36;4.82;;;1.40;;
65377;SDS011;51982;51.042;13.806;2023-07-13T12:36:35;5.75;;;1.30;;
65377;SDS011;51982;51.042;13.806;2023-07-13T12:39:12;4.47;;;1.23;;
65377;SDS011;51982;51.042;13.806;2023-07-13T12:41:41;4.28;;;1.30;;
65377;SDS011;51982;51.042;13.806;2023-07-13T12:44:11;3.22;;;1.27;;
65377;SDS011;51982;51.042;13.806;2023-07-13T12:46:39;7.55;;;1.35;;
65377;SDS011;51982;51.042;13.806;2023-07-13T12:49:06;4.63;;;1.38;;
65377;SDS011;51982;51.042;13.806;2023-07-13T12:51:32;3.60;;;1.40;;
65377;SDS011;51982;51.042;13.806;2023-07-13T12:54:05;4.10;;;1.20;;
65377;SDS011;51982;51.042;13.806;2023-07-13T12:56:43;3.65;;;1.10;;
65377;SDS011;51982;51.042;13.806;2023-07-13T12:59:11;3.65;;;1.30;;
65377;SDS011;51982;51.042;13.806;2023-07-13T13:01:44;3.97;;;1.30;;
65377;SDS011;51982;51.042;13.806;2023-07-13T13:04:10;2.63;;;1.20;;
65377;SDS011;51982;51.042;13.806;2023-07-13T13:06:37;5.20;;;1.50;;
65377;SDS011;51982;51.042;13.806;2023-07-13T13:09:03;3.65;;;1.20;;
65377;SDS011;51982;51.042;13.806;2023-07-13T13:11:36;7.22;;;1.23;;
65377;SDS011;51982;51.042;13.806;2023-07-13T13:14:02;4.20;;;1.30;;
65377;SDS011;51982;51.042;13.806;2023-07-13T13:16:30;3.40;;;1.30;;
65377;SDS011;51982;51.042;13.806;2023-07-13T13:18:57;3.22;;;1.30;;
65377;SDS011;51982;51.042;13.806;2023-07-13T13:21:35;6.22;;;1.50;;
65377;SDS011;51982;51.042;13.806;2023-07-13T13:24:00;2.97;;;1.20;;
65377;SDS011;51982;51.042;13.806;2023-07-13T13:26:26;2.63;;;1.13;;
65377;SDS011;51982;51.042;13.806;2023-07-13T13:28:51;3.53;;;1.10;;
65377;SDS011;51982;51.042;13.806;2023-07-13T13:31:16;4.57;;;1.20;;
65377;SDS011;51982;51.042;13.806;2023-07-13T13:33:42;2.67;;;1.08;;
65377;SDS011;51982;51.042;13.806;2023-07-13T13:36:14;6.03;;;1.45;;
65377;SDS011;51982;51.042;13.806;2023-07-13T13:38:41;2.67;;;1.10;;
65377;SDS011;51982;51.042;13.806;2023-07-13T13:41:09;4.43;;;1.25;;
65377;SDS011;51982;51.042;13.806;2023-07-13T13:43:35;3.83;;;1.25;;
65377;SDS011;51982;51.042;13.806;2023-07-13T13:46:00;3.37;;;1.30;;
65377;SDS011;51982;51.042;13.806;2023-07-13T13:48:28;5.00;;;1.10;;
65377;SDS011;51982;51.042;13.806;2023-07-13T13:50:56;2.60;;;1.30;;
65377;SDS011;51982;51.042;13.806;2023-07-13T13:53:22;2.05;;;1.10;;
65377;SDS011;51982;51.042;13.806;2023-07-13T13:55:50;3.10;;;1.20;;
65377;SDS011;51982;51.042;13.806;2023-07-13T13:58:17;2.78;;;1.23;;
65377;SDS011;51982;51.042;13.806;2023-07-13T14:00:43;3.05;;;1.35;;
65377;SDS011;51982;51.042;13.806;2023-07-13T14:03:18;2.25;;;1.20;;
65377;SDS011;51982;51.042;13.806;2023-07-13T14:05:44;3.13;;;1.03;;
65377;SDS011;51982;51.042;13.806;2023-07-13T14:08:12;4.53;;;1.08;;
65377;SDS011;51982;51.042;13.806;2023-07-13T14:10:42;1.83;;;1.15;;
65377;SDS011;51982;51.042;13.806;2023-07-13T14:13:14;3.63;;;1.20;;
65377;SDS011;51982;51.042;13.806;2023-07-13T14:15:45;4.68;;;1.30;;
65377;SDS011;51982;51.042;13.806;2023-07-13T14:18:11;5.15;;;1.20;;
65377;SDS011;51982;51.042;13.806;2023-07-13T14:20:37;2.55;;;1.17;;
65377;SDS011;51982;51.042;13.806;2023-07-13T14:23:02;2.92;;;1.08;;
65377;SDS011;51982;51.042;13.806;2023-07-13T14:25:28;3.60;;;1.30;;
65377;SDS011;51982;51.042;13.806;2023-07-13T14:27:55;3.20;;;1.05;;
65377;SDS011;51982;51.042;13.806;2023-07-13T14:30:23;3.17;;;1.13;;
65377;SDS011;51982;51.042;13.806;2023-07-13T14:32:50;3.88;;;1.30;;
65377;SDS011;51982;51.042;13.806;2023-07-13T14:35:17;2.05;;;1.05;;
65377;SDS011;51982;51.042;13.806;2023-07-13T14:37:45;2.83;;;1.10;;
65377;SDS011;51982;51.042;13.806;2023-07-13T14:40:12;6.18;;;1.38;;
65377;SDS011;51982;51.042;13.806;2023-07-13T14:42:41;3.67;;;1.10;;
65377;SDS011;51982;51.042;13.806;2023-07-13T14:45:14;4.40;;;1.50;;
65377;SDS011;51982;51.042;13.806;2023-07-13T14:50:11;2.53;;;1.15;;
65377;SDS011;51982;51.042;13.806;2023-07-13T14:52:41;1.80;;;1.08;;
65377;SDS011;51982;51.042;13.806;2023-07-13T14:55:11;5.18;;;1.27;;
65377;SDS011;51982;51.042;13.806;2023-07-13T14:57:37;2.22;;;1.20;;
65377;SDS011;51982;51.042;13.806;2023-07-13T15:00:04;3.35;;;1.23;;
65377;SDS011;51982;51.042;13.806;2023-07-13T15:02:34;1.63;;;1.08;;
65377;SDS011;51982;51.042;13.806;2023-07-13T15:05:05;1.75;;;1.10;;
65377;SDS011;51982;51.042;13.806;2023-07-13T15:07:37;6.40;;;1.30;;
65377;SDS011;51982;51.042;13.806;2023-07-13T15:10:04;3.63;;;1.23;;
65377;SDS011;51982;51.042;13.806;2023-07-13T15:12:37;13.00;;;1.40;;
65377;SDS011;51982;51.042;13.806;2023-07-13T15:15:02;4.43;;;1.20;;
65377;SDS011;51982;51.042;13.806;2023-07-13T15:17:32;4.47;;;1.17;;
65377;SDS011;51982;51.042;13.806;2023-07-13T15:20:02;3.13;;;1.02;;
65377;SDS011;51982;51.042;13.806;2023-07-13T15:22:57;4.55;;;1.33;;
65377;SDS011;51982;51.042;13.806;2023-07-13T15:25:24;1.33;;;0.93;;